createdAt,value
2018-11-29T00:01:27.299Z,71.00
2018-11-29T00:03:58.431Z,75.80
2018-11-29T00:06:29.501Z,68.00
2018-11-29T00:09:01.026Z,69.17
2018-11-29T00:11:32.263Z,64.23
2018-11-29T00:14:03.475Z,64.27
2018-11-29T00:16:34.983Z,63.30
2018-11-29T00:19:06.747Z,65.97
2018-11-29T00:21:37.869Z,66.73
2018-11-29T00:24:09.088Z,69.47
2018-11-29T00:26:40.751Z,61.80
2018-11-29T00:29:11.979Z,72.27
2018-11-29T00:31:43.222Z,67.57
2018-11-29T00:34:14.314Z,71.77
2018-11-29T00:36:45.779Z,77.07
2018-11-29T00:39:16.969Z,67.27
2018-11-29T00:41:48.166Z,71.37
2018-11-29T00:44:19.428Z,67.13
2018-11-29T00:46:50.635Z,67.77
2018-11-29T00:49:21.782Z,71.80
2018-11-29T00:51:52.998Z,74.17
2018-11-29T00:54:24.223Z,66.83
2018-11-29T00:56:55.755Z,76.00
2018-11-29T00:59:26.880Z,75.07
2018-11-29T01:02:00.816Z,77.20
2018-11-29T01:04:32.562Z,79.67
2018-11-29T01:07:03.884Z,73.87
2018-11-29T01:09:35.200Z,77.67
2018-11-29T01:12:06.814Z,72.77
2018-11-29T01:14:38.366Z,73.80
2018-11-29T01:17:09.699Z,76.43
2018-11-29T01:19:41.042Z,74.10
2018-11-29T01:22:12.232Z,77.73
2018-11-29T01:24:43.985Z,71.87
2018-11-29T01:27:15.408Z,81.70
2018-11-29T01:29:46.692Z,80.13
2018-11-29T01:32:18.213Z,88.87
2018-11-29T01:34:49.734Z,85.07
2018-11-29T01:37:21.758Z,71.27
2018-11-29T01:39:53.264Z,79.77
2018-11-29T01:42:24.402Z,72.10
2018-11-29T01:44:55.857Z,74.90
2018-11-29T01:47:27.351Z,74.13
2018-11-29T01:49:58.621Z,80.17
2018-11-29T01:52:29.812Z,75.10
2018-11-29T01:55:00.969Z,76.53
2018-11-29T01:57:32.515Z,74.67
2018-11-29T02:00:03.888Z,75.43
2018-11-29T02:02:35.078Z,75.00
2018-11-29T02:05:07.519Z,74.33
2018-11-29T02:07:38.761Z,76.30
2018-11-29T02:10:28.544Z,81.40
2018-11-29T02:12:59.481Z,80.27
2018-11-29T02:15:30.950Z,81.17
2018-11-29T02:18:01.889Z,79.77
2018-11-29T02:20:32.816Z,79.93
2018-11-29T02:23:03.739Z,80.00
2018-11-29T02:25:34.576Z,75.90
2018-11-29T02:31:52.016Z,75.70
2018-11-29T02:34:22.961Z,77.13
2018-11-29T02:36:54.227Z,75.53
2018-11-29T02:39:25.170Z,75.67
2018-11-29T02:41:56.040Z,74.40
2018-11-29T02:44:26.987Z,77.27
2018-11-29T02:46:58.378Z,79.57
2018-11-29T02:49:29.265Z,79.87
2018-11-29T02:52:00.374Z,82.13
2018-11-29T02:54:31.772Z,74.87
2018-11-29T02:57:02.828Z,78.30
2018-11-29T02:59:33.925Z,80.47
2018-11-29T03:02:04.983Z,83.07
2018-11-29T03:04:35.846Z,80.63
2018-11-29T03:07:06.967Z,86.40
2018-11-29T03:09:37.926Z,77.83
2018-11-29T03:12:08.899Z,79.70
2018-11-29T03:14:39.754Z,78.57
2018-11-29T03:17:10.804Z,81.53
2018-11-29T03:19:41.987Z,82.00
2018-11-29T03:22:12.942Z,80.50
2018-11-29T03:24:43.783Z,79.37
2018-11-29T03:27:15.071Z,78.97
2018-11-29T03:29:46.600Z,79.23
2018-11-29T03:32:17.654Z,74.83
2018-11-29T03:34:49.744Z,80.43
2018-11-29T03:37:20.612Z,78.30
2018-11-29T03:39:51.632Z,75.80
2018-11-29T03:42:22.577Z,85.47
2018-11-29T03:44:53.822Z,80.00
2018-11-29T03:47:24.742Z,81.47
2018-11-29T03:49:55.580Z,80.73
2018-11-29T03:52:26.560Z,89.80
2018-11-29T03:54:57.556Z,94.57
2018-11-29T03:57:28.494Z,94.27
2018-11-29T03:59:59.358Z,93.27
2018-11-29T04:02:30.298Z,89.60
2018-11-29T04:05:01.145Z,89.63
2018-11-29T04:07:32.323Z,95.77
2018-11-29T04:10:03.362Z,93.50
2018-11-29T04:12:34.418Z,94.53
2018-11-29T04:15:05.527Z,85.77
2018-11-29T04:17:40.599Z,94.13
2018-11-29T04:20:11.340Z,87.57
2018-11-29T04:22:42.406Z,92.10
2018-11-29T04:25:17.182Z,85.73
2018-11-29T04:27:48.240Z,87.27
2018-11-29T04:30:19.420Z,95.53
2018-11-29T04:32:50.652Z,90.33
2018-11-29T04:35:21.761Z,100.60
2018-11-29T04:37:52.962Z,92.77
2018-11-29T04:40:24.001Z,93.70
2018-11-29T04:42:55.338Z,86.57
2018-11-29T04:45:34.085Z,84.70
2018-11-29T04:48:09.992Z,99.40
2018-11-29T04:50:36.913Z,86.87
2018-11-29T04:53:07.966Z,90.03
2018-11-29T04:55:38.871Z,88.27
2018-11-29T04:58:10.073Z,89.50
2018-11-29T05:00:41.220Z,85.77
2018-11-29T05:03:12.344Z,88.03
2018-11-29T05:05:43.456Z,88.53
2018-11-29T05:08:14.387Z,85.27
2018-11-29T05:10:45.431Z,86.83
2018-11-29T05:13:16.287Z,86.13
2018-11-29T05:15:47.165Z,88.30
2018-11-29T05:18:18.001Z,86.43
2018-11-29T05:20:49.001Z,93.43
2018-11-29T05:23:19.857Z,90.33
2018-11-29T05:25:50.738Z,92.80
2018-11-29T05:28:21.593Z,88.03
2018-11-29T05:30:52.797Z,87.87
2018-11-29T05:33:23.871Z,93.10
2018-11-29T05:35:54.760Z,87.33
2018-11-29T05:38:25.600Z,90.80
2018-11-29T05:40:56.928Z,97.87
2018-11-29T05:43:27.954Z,93.30
2018-11-29T05:45:59.055Z,82.17
2018-11-29T05:48:30.393Z,85.90
2018-11-29T05:51:01.314Z,75.37
2018-11-29T05:53:32.900Z,81.63
2018-11-29T05:56:04.166Z,84.70
2018-11-29T05:58:35.266Z,86.20
2018-11-29T06:01:12.085Z,77.57
2018-11-29T06:03:42.917Z,74.90
2018-11-29T06:06:13.935Z,79.20
2018-11-29T06:08:44.782Z,79.30
2018-11-29T06:11:15.751Z,84.63
2018-11-29T06:13:46.690Z,80.10
2018-11-29T06:16:17.506Z,81.40
2018-11-29T06:18:48.512Z,77.03
2018-11-29T06:21:19.630Z,84.63
2018-11-29T06:23:50.599Z,75.90
2018-11-29T06:26:21.548Z,73.70
2018-11-29T06:28:52.495Z,71.77
2018-11-29T06:31:23.434Z,66.77
2018-11-29T06:33:54.570Z,69.83
2018-11-29T06:36:25.752Z,72.93
2018-11-29T06:38:56.835Z,69.97
2018-11-29T06:41:27.714Z,68.20
2018-11-29T06:43:59.055Z,63.60
2018-11-29T06:46:29.894Z,65.10
2018-11-29T06:49:00.905Z,56.27
2018-11-29T06:51:31.837Z,63.70
2018-11-29T06:54:02.674Z,57.27
2018-11-29T06:56:33.834Z,64.83
2018-11-29T06:59:04.861Z,57.60
2018-11-29T07:01:35.913Z,62.23
2018-11-29T07:04:07.183Z,67.30
2018-11-29T07:06:38.350Z,52.43
2018-11-29T07:09:10.672Z,57.23
2018-11-29T07:11:41.733Z,65.97
2018-11-29T07:14:12.567Z,57.93
2018-11-29T07:16:44.017Z,63.97
2018-11-29T07:19:15.126Z,58.70
2018-11-29T07:21:58.432Z,58.57
2018-11-29T07:24:29.443Z,55.63
2018-11-29T07:27:00.730Z,59.43
2018-11-29T07:29:31.831Z,48.97
2018-11-29T07:32:02.860Z,46.53
2018-11-29T07:34:33.778Z,51.53
2018-11-29T07:37:04.637Z,45.10
2018-11-29T07:39:35.724Z,40.60
2018-11-29T07:42:06.899Z,43.23
2018-11-29T07:44:37.766Z,43.47
2018-11-29T07:47:08.704Z,43.00
2018-11-29T07:49:39.626Z,47.00
2018-11-29T07:52:11.017Z,43.53
2018-11-29T07:54:42.165Z,43.73
2018-11-29T07:57:13.103Z,36.83
2018-11-29T07:59:44.124Z,40.13
2018-11-29T08:02:15.309Z,45.33
2018-11-29T08:04:46.493Z,39.17
2018-11-29T08:07:17.778Z,39.57
2018-11-29T08:09:48.646Z,42.20
2018-11-29T08:12:19.872Z,41.67
2018-11-29T08:14:50.913Z,43.20
2018-11-29T08:17:22.114Z,45.97
2018-11-29T08:19:53.055Z,44.27
2018-11-29T08:22:23.983Z,48.27
2018-11-29T08:24:55.099Z,48.20
2018-11-29T08:27:25.966Z,45.87
2018-11-29T08:29:56.992Z,44.57
2018-11-29T08:32:28.113Z,49.10
2018-11-29T08:34:59.320Z,49.93
2018-11-29T08:37:30.228Z,51.53
2018-11-29T08:40:01.207Z,55.23
2018-11-29T08:42:32.154Z,52.60
2018-11-29T08:45:03.115Z,52.63
2018-11-29T08:47:34.046Z,51.37
2018-11-29T08:50:05.429Z,58.27
2018-11-29T08:52:36.412Z,54.67
2018-11-29T08:55:11.780Z,58.80
2018-11-29T08:57:43.080Z,53.83
2018-11-29T09:00:16.108Z,52.97
2018-11-29T09:02:47.241Z,55.63
2018-11-29T09:05:18.405Z,51.57
2018-11-29T09:07:50.482Z,57.97
2018-11-29T09:10:31.366Z,57.23
2018-11-29T09:12:57.542Z,54.30
2018-11-29T09:15:28.831Z,55.53
2018-11-29T09:17:59.860Z,59.53
2018-11-29T09:20:31.158Z,52.13
2018-11-29T09:23:02.383Z,54.40
2018-11-29T09:25:33.224Z,52.97
2018-11-29T09:28:04.182Z,59.17
2018-11-29T09:30:35.277Z,51.27
2018-11-29T09:33:06.451Z,56.03
2018-11-29T09:35:37.498Z,56.27
2018-11-29T09:38:08.464Z,56.87
2018-11-29T09:40:39.676Z,53.17
2018-11-29T09:43:10.699Z,53.80
2018-11-29T09:45:42.008Z,54.40
2018-11-29T09:48:12.835Z,53.20
2018-11-29T09:50:43.793Z,53.00
2018-11-29T09:53:14.824Z,52.03
2018-11-29T09:55:45.894Z,51.33
2018-11-29T09:58:16.747Z,51.50
2018-11-29T10:00:48.031Z,49.30
2018-11-29T10:03:19.386Z,51.00
2018-11-29T10:05:50.415Z,50.93
2018-11-29T10:08:26.065Z,52.73
2018-11-29T10:10:53.212Z,56.90
2018-11-29T10:13:24.063Z,54.90
2018-11-29T10:15:55.352Z,52.00
2018-11-29T10:18:26.288Z,46.90
2018-11-29T10:20:57.245Z,55.00
2018-11-29T10:23:28.171Z,50.27
2018-11-29T10:25:59.035Z,52.70
2018-11-29T10:28:29.876Z,49.07
2018-11-29T10:31:03.117Z,51.13
2018-11-29T10:33:34.206Z,54.93
2018-11-29T10:36:05.808Z,56.17
2018-11-29T10:38:36.926Z,51.90
2018-11-29T10:41:08.346Z,48.50
2018-11-29T10:43:39.187Z,51.77
2018-11-29T10:46:10.422Z,51.80
2018-11-29T10:48:41.754Z,51.10
2018-11-29T10:51:12.701Z,49.70
2018-11-29T10:53:43.685Z,49.20
2018-11-29T10:56:14.526Z,46.33
2018-11-29T10:58:45.555Z,46.17
2018-11-29T11:01:45.958Z,50.90
2018-11-29T11:04:16.993Z,52.63
2018-11-29T11:06:47.830Z,52.53
2018-11-29T11:09:18.850Z,49.40
2018-11-29T11:11:49.888Z,49.67
2018-11-29T11:14:20.752Z,48.27
2018-11-29T11:16:51.870Z,47.50
2018-11-29T11:19:22.809Z,49.07
2018-11-29T11:21:53.737Z,48.30
2018-11-29T11:24:24.583Z,46.67
2018-11-29T11:26:55.486Z,47.40
2018-11-29T11:29:26.301Z,48.33
2018-11-29T11:31:57.326Z,46.10
2018-11-29T11:34:28.182Z,48.10
2018-11-29T11:36:59.271Z,51.53
2018-11-29T11:39:30.547Z,51.43
2018-11-29T11:42:01.586Z,47.30
2018-11-29T11:44:32.526Z,49.67
2018-11-29T11:47:03.654Z,42.00
2018-11-29T11:49:34.547Z,50.23
2018-11-29T11:52:05.935Z,50.67
2018-11-29T11:54:37.141Z,43.27
2018-11-29T11:57:08.287Z,52.53
2018-11-29T11:59:39.137Z,48.27
2018-11-29T12:02:10.178Z,49.13
2018-11-29T12:04:41.565Z,47.47
2018-11-29T12:07:12.793Z,46.60
2018-11-29T12:09:44.364Z,47.83
2018-11-29T12:12:15.407Z,46.30
2018-11-29T12:14:46.526Z,51.10
2018-11-29T12:17:17.601Z,44.50
2018-11-29T12:19:48.557Z,41.40
2018-11-29T12:22:19.500Z,43.73
2018-11-29T12:24:50.549Z,46.07
2018-11-29T12:27:21.565Z,43.20
2018-11-29T12:29:52.954Z,44.97
2018-11-29T12:32:23.815Z,41.23
2018-11-29T12:34:54.776Z,40.57
2018-11-29T12:37:25.710Z,44.00
2018-11-29T12:39:56.641Z,42.27
2018-11-29T12:42:27.686Z,44.63
2018-11-29T12:44:58.564Z,45.07
2018-11-29T12:47:29.599Z,43.40
2018-11-29T12:50:00.628Z,43.60
2018-11-29T12:52:31.673Z,42.47
2018-11-29T12:55:02.684Z,42.20
2018-11-29T12:57:33.621Z,43.83
2018-11-29T13:00:04.738Z,42.90
2018-11-29T13:02:35.763Z,44.57
2018-11-29T13:05:09.257Z,45.77
2018-11-29T13:07:43.319Z,45.83
2018-11-29T13:10:12.753Z,45.13
2018-11-29T13:12:43.874Z,46.57
2018-11-29T13:15:25.695Z,47.33
2018-11-29T13:17:57.949Z,44.33
2018-11-29T13:20:32.441Z,47.53
2018-11-29T13:23:01.116Z,45.30
2018-11-29T13:25:32.182Z,43.77
2018-11-29T13:28:03.026Z,46.50
2018-11-29T13:30:33.983Z,46.77
2018-11-29T13:33:05.033Z,43.90
2018-11-29T13:35:36.936Z,47.60
2018-11-29T13:38:15.432Z,47.10
2018-11-29T13:40:51.148Z,46.27
2018-11-29T13:43:22.082Z,44.37
2018-11-29T13:45:53.132Z,51.43
2018-11-29T13:48:24.257Z,49.97
2018-11-29T13:50:55.464Z,46.97
2018-11-29T13:53:26.400Z,49.20
2018-11-29T13:55:57.341Z,46.70
2018-11-29T13:58:28.190Z,47.67
2018-11-29T14:00:59.245Z,54.43
2018-11-29T14:03:30.077Z,51.83
2018-11-29T14:06:01.361Z,52.37
2018-11-29T14:08:32.296Z,51.43
2018-11-29T14:11:03.421Z,46.07
2018-11-29T14:13:34.441Z,46.67
2018-11-29T14:16:05.590Z,56.43
2018-11-29T14:18:36.959Z,51.40
2018-11-29T14:21:08.141Z,52.43
2018-11-29T14:23:38.987Z,50.20
2018-11-29T14:26:09.949Z,47.77
2018-11-29T14:28:40.756Z,47.67
2018-11-29T14:31:11.689Z,48.47
2018-11-29T14:33:42.539Z,43.87
2018-11-29T14:36:13.574Z,46.73
2018-11-29T14:38:44.519Z,49.87
2018-11-29T14:41:15.467Z,44.57
2018-11-29T14:43:46.639Z,46.83
2018-11-29T14:46:17.610Z,43.40
2018-11-29T14:48:48.526Z,44.93
2018-11-29T14:51:19.463Z,47.97
2018-11-29T14:53:50.333Z,47.63
2018-11-29T14:56:21.549Z,45.40
2018-11-29T14:58:52.411Z,41.03
2018-11-29T15:01:23.247Z,44.47
2018-11-29T15:03:54.367Z,42.20
2018-11-29T15:06:25.612Z,40.33
2018-11-29T15:08:56.453Z,38.87
2018-11-29T15:11:29.366Z,39.70
2018-11-29T15:13:59.292Z,40.47
2018-11-29T15:16:30.391Z,39.10
2018-11-29T15:19:01.347Z,41.57
2018-11-29T15:21:32.380Z,35.43
2018-11-29T15:24:03.420Z,36.87
2018-11-29T15:26:34.269Z,35.90
2018-11-29T15:29:05.400Z,38.73
2018-11-29T15:31:36.617Z,41.83
2018-11-29T15:34:07.905Z,35.20
2018-11-29T15:36:38.852Z,35.80
2018-11-29T15:39:10.927Z,36.50
2018-11-29T15:41:41.852Z,36.53
2018-11-29T15:44:12.705Z,32.80
2018-11-29T15:46:43.665Z,41.17
2018-11-29T15:49:14.760Z,35.87
2018-11-29T15:51:45.722Z,36.30
2018-11-29T15:54:16.739Z,35.73
2018-11-29T15:56:47.679Z,35.43
2018-11-29T15:59:18.797Z,39.53
2018-11-29T16:01:49.807Z,37.60
2018-11-29T16:04:20.852Z,38.47
2018-11-29T16:06:51.796Z,37.03
2018-11-29T16:09:22.991Z,37.77
2018-11-29T16:11:54.139Z,39.13
2018-11-29T16:14:25.094Z,37.43
2018-11-29T16:16:56.027Z,36.13
2018-11-29T16:19:27.233Z,37.87
2018-11-29T16:21:58.355Z,36.97
2018-11-29T16:24:29.411Z,39.70
2018-11-29T16:27:00.362Z,37.67
2018-11-29T16:29:31.333Z,41.63
2018-11-29T16:32:02.380Z,33.77
2018-11-29T16:34:33.420Z,39.43
2018-11-29T16:37:04.586Z,38.90
2018-11-29T16:39:35.661Z,37.10
2018-11-29T16:42:06.808Z,36.23
2018-11-29T16:44:38.007Z,37.83
2018-11-29T16:47:09.170Z,35.33
2018-11-29T16:49:40.635Z,40.13
2018-11-29T16:52:11.574Z,38.13
2018-11-29T16:54:42.556Z,36.17
2018-11-29T16:57:13.836Z,35.17
2018-11-29T16:59:45.367Z,34.77
2018-11-29T17:02:16.600Z,34.23
2018-11-29T17:04:47.672Z,34.73
2018-11-29T17:07:19.122Z,34.30
2018-11-29T17:09:50.071Z,32.70
2018-11-29T17:12:24.198Z,35.83
2018-11-29T17:14:55.424Z,34.93
2018-11-29T17:17:26.714Z,32.63
2018-11-29T17:19:57.771Z,32.63
2018-11-29T17:22:28.723Z,35.10
2018-11-29T17:24:59.666Z,31.63
2018-11-29T17:27:30.836Z,36.43
2018-11-29T17:30:02.034Z,33.03
2018-11-29T17:32:32.991Z,34.13
2018-11-29T17:35:04.065Z,34.20
2018-11-29T17:37:34.996Z,35.67
2018-11-29T17:40:16.559Z,35.07
2018-11-29T17:42:47.612Z,36.77
2018-11-29T17:45:20.416Z,36.70
2018-11-29T17:47:52.866Z,34.90
2018-11-29T17:50:37.620Z,41.63
2018-11-29T17:53:09.363Z,36.67
2018-11-29T17:55:40.611Z,34.57
2018-11-29T17:58:18.111Z,37.97
2018-11-29T18:00:51.636Z,35.93
2018-11-29T18:03:25.637Z,40.50
2018-11-29T18:05:56.549Z,34.53
2018-11-29T18:08:27.421Z,35.30
2018-11-29T18:10:59.545Z,35.53
2018-11-29T18:13:36.640Z,37.47
2018-11-29T18:16:08.011Z,36.90
2018-11-29T18:18:38.885Z,36.87
2018-11-29T18:21:09.846Z,35.90
2018-11-29T18:23:40.845Z,39.37
2018-11-29T18:26:11.784Z,35.83
2018-11-29T18:28:42.733Z,34.23
2018-11-29T18:31:13.586Z,34.03
2018-11-29T18:33:44.778Z,33.67
2018-11-29T18:36:15.722Z,35.17
2018-11-29T18:38:46.929Z,36.97
2018-11-29T18:41:17.892Z,38.30
2018-11-29T18:43:49.023Z,37.30
2018-11-29T18:46:20.128Z,35.27
2018-11-29T18:48:51.177Z,37.37
2018-11-29T18:51:22.385Z,37.73
2018-11-29T18:53:53.582Z,34.70
2018-11-29T18:56:24.539Z,34.70
2018-11-29T18:58:55.404Z,35.43
2018-11-29T19:01:26.601Z,34.80
2018-11-29T19:03:57.551Z,38.40
2018-11-29T19:06:28.671Z,35.53
2018-11-29T19:08:59.597Z,35.67
2018-11-29T19:11:31.111Z,37.30
2018-11-29T19:14:02.209Z,36.77
2018-11-29T19:16:33.070Z,36.20
2018-11-29T19:19:03.960Z,38.83
2018-11-29T19:21:59.088Z,35.83
2018-11-29T19:25:43.666Z,35.23
2018-11-29T19:28:24.298Z,33.50
2018-11-29T19:36:31.139Z,38.00
2018-11-29T19:39:52.913Z,38.00
2018-11-29T19:46:57.458Z,38.47
2018-11-29T19:53:08.319Z,38.03
2018-11-29T19:55:39.276Z,39.43
2018-11-29T19:58:10.561Z,37.57
2018-11-29T20:00:41.818Z,40.00
2018-11-29T20:03:12.887Z,39.30
2018-11-29T20:05:44.110Z,42.97
2018-11-29T20:08:15.053Z,43.10
2018-11-29T20:10:46.031Z,37.80
2018-11-29T20:13:17.983Z,41.63
2018-11-29T20:15:54.733Z,36.53
2018-11-29T20:18:25.668Z,41.37
2018-11-29T20:20:56.618Z,41.20
2018-11-29T20:23:27.468Z,44.10
2018-11-29T20:25:58.509Z,38.37
2018-11-29T20:28:29.476Z,42.07
2018-11-29T20:31:00.568Z,41.80
2018-11-29T20:33:31.414Z,42.70
2018-11-29T20:36:02.367Z,43.23
2018-11-29T20:38:33.531Z,44.63
2018-11-29T20:41:04.729Z,41.20
2018-11-29T20:43:35.720Z,45.30
2018-11-29T20:46:07.184Z,42.63
2018-11-29T20:48:38.373Z,40.30
2018-11-29T20:51:09.422Z,45.03
2018-11-29T20:53:41.716Z,41.30
2018-11-29T20:56:15.293Z,42.10
2018-11-29T20:58:46.583Z,44.93
2018-11-29T21:01:17.644Z,45.67
2018-11-29T21:03:48.585Z,40.67
2018-11-29T21:06:19.535Z,46.33
2018-11-29T21:08:50.437Z,43.47
2018-11-29T21:11:21.448Z,40.20
2018-11-29T21:13:52.555Z,46.60
2018-11-29T21:16:23.836Z,42.97
2018-11-29T21:18:54.676Z,46.80
2018-11-29T21:21:25.701Z,48.20
2018-11-29T21:23:56.624Z,44.10
2018-11-29T21:26:27.744Z,43.93
2018-11-29T21:28:58.936Z,48.03
2018-11-29T21:31:30.224Z,44.37
2018-11-29T21:34:01.490Z,47.80
2018-11-29T21:36:32.716Z,42.57
2018-11-29T21:39:04.635Z,41.50
2018-11-29T21:41:35.581Z,45.30
2018-11-29T21:44:06.956Z,45.77
2018-11-29T21:46:38.285Z,45.83
2018-11-29T21:49:09.244Z,45.87
2018-11-29T21:51:40.151Z,44.03
2018-11-29T21:54:11.005Z,44.03
2018-11-29T21:56:41.942Z,42.90
2018-11-29T21:59:13.175Z,42.80
2018-11-29T22:01:44.415Z,41.53
2018-11-29T22:04:15.246Z,45.73
2018-11-29T22:06:46.110Z,41.20
2018-11-29T22:09:17.065Z,43.00
2018-11-29T22:11:48.023Z,43.83
2018-11-29T22:14:19.271Z,42.73
2018-11-29T22:16:50.574Z,45.07
2018-11-29T22:19:21.421Z,48.33
2018-11-29T22:21:52.400Z,46.53
2018-11-29T22:24:23.577Z,43.97
2018-11-29T22:26:54.770Z,45.07
2018-11-29T22:29:25.827Z,45.60
2018-11-29T22:31:56.877Z,48.17
2018-11-29T22:34:27.736Z,47.30
2018-11-29T22:36:58.864Z,46.97
2018-11-29T22:39:30.057Z,41.53
2018-11-29T22:42:01.143Z,45.97
2018-11-29T22:47:05.995Z,46.47
2018-11-29T22:49:37.109Z,46.13
2018-11-29T22:52:08.487Z,44.20
2018-11-29T22:54:39.452Z,40.03
2018-11-29T22:57:10.492Z,40.20
2018-11-29T22:59:41.447Z,47.27
2018-11-29T23:02:12.911Z,45.30
2018-11-29T23:04:44.560Z,42.20
2018-11-29T23:07:16.001Z,45.80
2018-11-29T23:09:47.114Z,42.30
2018-11-29T23:12:24.776Z,50.10
2018-11-29T23:14:56.281Z,44.23
2018-11-29T23:17:27.294Z,44.60
2018-11-29T23:19:58.876Z,41.87
2018-11-29T23:22:29.883Z,44.13
2018-11-29T23:25:01.131Z,38.20
2018-11-29T23:27:32.304Z,41.57
2018-11-29T23:30:03.740Z,40.23
2018-11-29T23:32:34.997Z,42.77
2018-11-29T23:35:06.597Z,44.77
2018-11-29T23:37:38.020Z,43.73
2018-11-29T23:40:21.775Z,43.30
2018-11-29T23:42:52.947Z,40.53
2018-11-29T23:45:24.284Z,41.87
2018-11-29T23:47:55.690Z,46.40
2018-11-29T23:50:26.812Z,41.20
2018-11-29T23:52:57.806Z,42.90
2018-11-29T23:55:28.914Z,40.73
2018-11-29T23:58:00.348Z,41.03
